Time;durP1;ratioP1;P1;durP2;ratioP2;P2;SDS_P1;SDS_P2;PMS_P1;PMS_P2;Temp;Humidity;BMP_temperature;BMP_pressure;BME280_temperature;BME280_humidity;BME280_pressure;Samples;Min_cycle;Max_cycle;Signal;HPM_P1;HPM_P2
2023/07/10 00:02:09;;;;;;;2.15;1.95;;;21.20;99.90;;;;;;4914418;29;20230;-79
2023/07/10 00:04:35;;;;;;;2.63;2.42;;;21.10;99.90;;;;;;4913828;29;20302;-76
2023/07/10 00:07:01;;;;;;;2.33;2.13;;;21.10;99.90;;;;;;4933973;29;20031;-78
2023/07/10 00:09:27;;;;;;;4.90;3.45;;;21.00;99.90;;;;;;4934628;29;20032;-79
2023/07/10 00:11:52;;;;;;;3.40;3.08;;;21.00;99.90;;;;;;4934628;29;20404;-79
2023/07/10 00:14:21;;;;;;;9.70;3.15;;;21.00;99.90;;;;;;4934154;29;20423;-76
2023/07/10 00:16:48;;;;;;;2.60;2.40;;;20.90;99.90;;;;;;4934353;29;20020;-76
2023/07/10 00:19:14;;;;;;;5.25;2.97;;;20.90;99.90;;;;;;4934187;29;20035;-78
2023/07/10 00:21:40;;;;;;;2.97;2.38;;;20.90;99.90;;;;;;4935364;29;20075;-76
2023/07/10 00:24:06;;;;;;;8.77;2.60;;;20.90;99.90;;;;;;4935852;29;20035;-78
2023/07/10 00:26:32;;;;;;;4.28;3.05;;;20.90;99.90;;;;;;4936241;29;20035;-78
2023/07/10 00:29:01;;;;;;;5.85;2.75;;;21.00;99.90;;;;;;4936614;29;20051;-76
2023/07/10 00:31:26;;;;;;;7.72;3.80;;;21.10;99.90;;;;;;4952642;29;20031;-76
2023/07/10 00:33:53;;;;;;;6.03;2.72;;;21.20;99.90;;;;;;4935390;29;20050;-77
2023/07/10 00:36:30;;;;;;;3.83;2.65;;;21.20;99.90;;;;;;4918090;29;20464;-76
2023/07/10 00:39:19;;;;;;;3.65;2.53;;;21.20;99.90;;;;;;4935049;29;20436;-76
2023/07/10 00:41:48;;;;;;;3.08;2.65;;;21.20;99.90;;;;;;4935102;29;20063;-76
2023/07/10 00:44:14;;;;;;;6.28;3.35;;;21.30;99.90;;;;;;4935447;29;20028;-78
2023/07/10 00:46:52;;;;;;;4.57;3.15;;;21.30;99.90;;;;;;4935258;29;20542;-75
2023/07/10 00:49:43;;;;;;;4.03;2.35;;;21.30;99.90;;;;;;4934464;29;20028;-76
2023/07/10 00:52:13;;;;;;;3.20;2.22;;;21.20;99.90;;;;;;4935114;29;20039;-77
2023/07/10 00:54:44;;;;;;;4.03;2.63;;;21.10;99.90;;;;;;4938081;29;20024;-76
2023/07/10 00:57:15;;;;;;;5.20;2.55;;;21.00;99.90;;;;;;4934338;29;20028;-76
2023/07/10 00:59:42;;;;;;;5.40;2.55;;;21.10;99.90;;;;;;4932919;29;20028;-77
2023/07/10 01:02:07;;;;;;;2.63;2.40;;;21.00;99.90;;;;;;4934839;29;20043;-77
2023/07/10 01:04:39;;;;;;;7.95;2.25;;;21.00;99.90;;;;;;4932330;29;20091;-77
2023/07/10 01:07:06;;;;;;;6.35;3.53;;;21.00;99.90;;;;;;4934455;29;20306;-76
2023/07/10 01:09:32;;;;;;;5.85;2.70;;;21.00;99.90;;;;;;4933617;29;20099;-75
2023/07/10 01:11:58;;;;;;;3.00;2.47;;;21.00;99.90;;;;;;4933218;29;20362;-76
2023/07/10 01:14:24;;;;;;;3.83;3.38;;;20.90;99.90;;;;;;4932974;29;20034;-76
2023/07/10 01:16:52;;;;;;;5.25;2.47;;;20.80;99.90;;;;;;4933408;29;20316;-78
2023/07/10 01:19:22;;;;;;;4.18;2.30;;;20.80;99.90;;;;;;4934238;29;20477;-75
2023/07/10 01:21:50;;;;;;;3.25;2.30;;;20.80;99.90;;;;;;4967571;28;20054;-77
2023/07/10 01:24:16;;;;;;;3.15;2.67;;;20.80;99.90;;;;;;4965389;28;20105;-76
2023/07/10 01:26:42;;;;;;;3.63;2.92;;;20.80;99.90;;;;;;4972858;28;20555;-76
2023/07/10 01:29:33;;;;;;;3.60;2.28;;;20.80;99.90;;;;;;4972877;28;20026;-76
2023/07/10 01:32:02;;;;;;;3.60;2.53;;;20.80;99.90;;;;;;4971461;28;20030;-76
2023/07/10 01:34:45;;;;;;;7.93;2.47;;;20.80;99.90;;;;;;4970348;28;20035;-76
2023/07/10 01:37:12;;;;;;;7.63;2.67;;;20.70;99.90;;;;;;4953532;28;20171;-79
2023/07/10 01:39:44;;;;;;;7.30;2.67;;;20.60;99.90;;;;;;4971273;28;20546;-77
2023/07/10 01:42:11;;;;;;;6.72;3.58;;;20.50;99.90;;;;;;4971190;28;20047;-81
2023/07/10 01:44:40;;;;;;;6.28;3.17;;;20.40;99.90;;;;;;4971866;28;20025;-77
2023/07/10 01:47:07;;;;;;;5.43;3.28;;;20.40;99.90;;;;;;4971243;28;20030;-75
2023/07/10 01:49:33;;;;;;;6.40;3.35;;;20.40;99.90;;;;;;4970886;28;20027;-81
2023/07/10 01:52:00;;;;;;;3.38;2.53;;;20.50;99.90;;;;;;4971892;28;20332;-81
2023/07/10 01:54:25;;;;;;;3.88;3.08;;;20.40;99.90;;;;;;4972559;28;20030;-77
2023/07/10 01:56:52;;;;;;;3.35;2.35;;;20.40;99.90;;;;;;4972428;28;20078;-77
2023/07/10 01:59:18;;;;;;;3.60;2.80;;;20.40;99.90;;;;;;4972080;28;20047;-75
2023/07/10 02:01:44;;;;;;;4.30;3.05;;;20.50;99.90;;;;;;4972479;28;20498;-77
2023/07/10 02:04:09;;;;;;;5.63;3.05;;;20.40;99.90;;;;;;4971738;28;20498;-78
2023/07/10 02:06:37;;;;;;;9.70;4.30;;;20.30;99.90;;;;;;4972448;28;20050;-77
2023/07/10 02:09:04;;;;;;;6.20;3.35;;;20.30;99.90;;;;;;4972189;28;20082;-76
2023/07/10 02:11:30;;;;;;;6.70;3.47;;;20.40;99.90;;;;;;4972055;28;20033;-77
2023/07/10 02:13:55;;;;;;;3.67;2.28;;;20.40;99.90;;;;;;4972729;28;20105;-75
2023/07/10 02:16:21;;;;;;;6.88;2.80;;;20.40;99.90;;;;;;4971915;28;20026;-75
2023/07/10 02:18:47;;;;;;;5.10;3.20;;;20.50;99.90;;;;;;4972091;28;20035;-76
2023/07/10 02:21:12;;;;;;;2.97;2.40;;;20.50;99.90;;;;;;4971093;28;20173;-77
2023/07/10 02:23:40;;;;;;;4.32;2.50;;;20.60;99.90;;;;;;4971792;28;20395;-81
2023/07/10 02:26:06;;;;;;;3.38;2.75;;;20.60;99.90;;;;;;4954929;28;20392;-77
2023/07/10 02:28:32;;;;;;;7.13;3.35;;;20.60;99.90;;;;;;4972331;28;20479;-80
2023/07/10 02:31:04;;;;;;;3.15;2.83;;;20.50;99.90;;;;;;4971693;28;20035;-80
2023/07/10 02:33:29;;;;;;;5.25;2.70;;;20.60;99.90;;;;;;4971542;28;20019;-76
2023/07/10 02:35:55;;;;;;;5.72;2.95;;;20.70;99.90;;;;;;4971900;28;20031;-78
2023/07/10 02:38:20;;;;;;;10.10;3.33;;;20.80;99.90;;;;;;4972016;28;20050;-80
2023/07/10 02:40:46;;;;;;;6.65;3.15;;;21.10;99.90;;;;;;4954512;28;20109;-81
2023/07/10 02:43:12;;;;;;;7.18;3.50;;;21.50;99.90;;;;;;4971858;28;20615;-81
2023/07/10 02:45:37;;;;;;;5.65;3.95;;;22.00;99.90;;;;;;4971959;28;20052;-80
2023/07/10 02:48:03;;;;;;;6.30;4.03;;;22.30;99.90;;;;;;4971946;28;20439;-80
2023/07/10 02:50:29;;;;;;;6.07;3.65;;;22.50;99.90;;;;;;4971725;28;20027;-79
2023/07/10 02:52:55;;;;;;;8.68;4.03;;;22.70;99.90;;;;;;4972851;28;20042;-81
2023/07/10 02:55:20;;;;;;;4.90;3.53;;;22.70;99.90;;;;;;4972302;28;20098;-80
2023/07/10 02:57:46;;;;;;;8.13;3.00;;;22.70;99.90;;;;;;4971222;28;20037;-80
2023/07/10 03:00:12;;;;;;;3.25;2.95;;;22.80;99.90;;;;;;4971206;28;20042;-76
2023/07/10 03:02:38;;;;;;;6.35;3.28;;;22.80;99.90;;;;;;4971210;28;20126;-79
2023/07/10 03:05:04;;;;;;;4.97;3.55;;;22.80;99.90;;;;;;4970921;28;20495;-81
2023/07/10 03:07:31;;;;;;;11.98;3.50;;;22.80;99.90;;;;;;4971140;28;20034;-80
2023/07/10 03:09:56;;;;;;;10.55;4.38;;;22.80;99.90;;;;;;4971050;28;20037;-81
2023/07/10 03:12:22;;;;;;;5.38;3.35;;;22.70;99.90;;;;;;4971089;28;20175;-79
2023/07/10 03:14:49;;;;;;;6.47;3.05;;;22.70;99.90;;;;;;4971148;28;20031;-79
2023/07/10 03:17:15;;;;;;;4.68;2.63;;;22.70;99.90;;;;;;4971133;28;20027;-79
2023/07/10 03:19:41;;;;;;;7.85;3.88;;;22.70;99.90;;;;;;4970875;28;20054;-76
2023/07/10 03:22:06;;;;;;;3.88;2.80;;;22.70;99.90;;;;;;4953572;28;20089;-79
2023/07/10 03:24:32;;;;;;;4.32;3.00;;;22.60;99.90;;;;;;4971112;28;20098;-80
2023/07/10 03:26:58;;;;;;;7.55;3.38;;;22.60;99.90;;;;;;4970847;28;20109;-80
2023/07/10 03:29:24;;;;;;;3.75;2.75;;;22.70;99.90;;;;;;4971072;28;20027;-78
2023/07/10 03:31:50;;;;;;;4.35;3.20;;;22.70;99.90;;;;;;4971583;28;20109;-79
2023/07/10 03:34:16;;;;;;;8.63;3.72;;;22.70;99.90;;;;;;4974919;28;20179;-79
2023/07/10 03:36:42;;;;;;;5.78;3.35;;;22.70;99.90;;;;;;4975623;28;20114;-79
2023/07/10 03:39:08;;;;;;;8.90;2.38;;;22.50;99.90;;;;;;4975161;28;20023;-79
2023/07/10 03:41:34;;;;;;;3.97;2.72;;;22.50;99.90;;;;;;4975087;28;20043;-79
2023/07/10 03:43:59;;;;;;;5.15;2.85;;;22.50;99.90;;;;;;4975133;28;20027;-79
2023/07/10 03:46:25;;;;;;;5.45;2.78;;;22.60;99.90;;;;;;4975050;28;20027;-81
2023/07/10 03:48:51;;;;;;;3.55;2.83;;;22.60;99.90;;;;;;4974787;28;20468;-78
2023/07/10 03:51:18;;;;;;;3.63;2.80;;;22.50;99.90;;;;;;4957031;28;20117;-79
2023/07/10 03:53:44;;;;;;;4.75;3.33;;;22.60;99.90;;;;;;4957661;28;20129;-79
2023/07/10 03:56:09;;;;;;;4.10;3.03;;;22.50;99.90;;;;;;4957657;28;20054;-79
2023/07/10 03:58:39;;;;;;;3.40;2.38;;;22.40;99.90;;;;;;4957448;28;20039;-79
2023/07/10 04:01:05;;;;;;;5.43;3.35;;;22.60;99.90;;;;;;4975417;28;20026;-77
2023/07/10 04:03:34;;;;;;;3.80;2.55;;;22.50;99.90;;;;;;4962009;28;20037;-82
2023/07/10 04:06:01;;;;;;;8.02;2.95;;;22.50;99.90;;;;;;4976728;28;20094;-77
2023/07/10 04:08:29;;;;;;;3.85;2.67;;;22.50;99.90;;;;;;4976126;28;20029;-82
2023/07/10 04:10:57;;;;;;;3.43;3.10;;;22.30;99.90;;;;;;4957479;28;20101;-78
2023/07/10 04:13:23;;;;;;;3.75;3.03;;;22.30;99.90;;;;;;4957676;28;20031;-81
2023/07/10 04:16:17;;;;;;;3.83;2.65;;;22.30;99.90;;;;;;4957308;28;20034;-82
2023/07/10 04:18:44;;;;;;;3.33;2.25;;;22.30;99.90;;;;;;4974919;28;20102;-78
2023/07/10 04:21:19;;;;;;;5.53;2.78;;;22.30;99.90;;;;;;4973434;28;20116;-78
2023/07/10 04:23:45;;;;;;;5.95;3.17;;;22.20;99.90;;;;;;4974102;28;20027;-79
2023/07/10 04:26:17;;;;;;;5.57;2.90;;;22.20;99.90;;;;;;4957325;28;20049;-78
2023/07/10 04:28:48;;;;;;;11.13;3.17;;;22.20;99.90;;;;;;4959499;28;20066;-83
2023/07/10 04:31:15;;;;;;;3.67;2.83;;;22.10;99.90;;;;;;4982880;28;20030;-83
2023/07/10 04:33:40;;;;;;;6.85;3.20;;;22.20;99.90;;;;;;4957852;28;20039;-82
2023/07/10 04:36:08;;;;;;;8.38;3.63;;;22.10;99.90;;;;;;4959266;28;20395;-76
2023/07/10 04:38:35;;;;;;;9.82;3.42;;;21.30;99.90;;;;;;4976203;28;20037;-77
2023/07/10 04:41:04;;;;;;;6.25;3.15;;;20.20;99.90;;;;;;4973453;28;20070;-79
2023/07/10 04:43:31;;;;;;;3.53;2.83;;;19.40;99.90;;;;;;4955387;28;20117;-76
2023/07/10 04:46:03;;;;;;;8.48;2.72;;;18.80;99.90;;;;;;4974159;28;20062;-77
2023/07/10 04:48:29;;;;;;;2.63;2.15;;;18.30;99.90;;;;;;4973744;28;20050;-78
2023/07/10 04:50:57;;;;;;;6.43;2.95;;;18.20;99.90;;;;;;4955852;28;20063;-78
2023/07/10 04:53:23;;;;;;;10.68;2.75;;;18.20;99.90;;;;;;4956522;28;20114;-80
2023/07/10 04:55:51;;;;;;;4.35;2.60;;;18.20;99.90;;;;;;4956897;28;20027;-80
2023/07/10 04:58:17;;;;;;;5.57;3.25;;;18.20;99.90;;;;;;4956693;28;20031;-81
2023/07/10 05:00:43;;;;;;;10.50;3.35;;;18.20;99.90;;;;;;4956172;28;20030;-79
2023/07/10 05:03:09;;;;;;;2.47;2.20;;;18.30;99.90;;;;;;4956235;28;20383;-81
2023/07/10 05:05:36;;;;;;;5.10;2.10;;;18.30;99.90;;;;;;4956089;28;20501;-80
2023/07/10 05:08:02;;;;;;;4.15;1.90;;;18.30;99.90;;;;;;4956532;28;20506;-81
2023/07/10 05:10:28;;;;;;;6.05;2.70;;;18.30;99.90;;;;;;4956254;28;20027;-81
2023/07/10 05:12:54;;;;;;;3.47;2.45;;;18.40;99.90;;;;;;4955953;28;20030;-81
2023/07/10 05:15:20;;;;;;;1.98;1.73;;;18.50;99.90;;;;;;4956211;28;20023;-81
2023/07/10 05:17:46;;;;;;;3.35;2.10;;;18.60;99.90;;;;;;4955813;28;20391;-80
2023/07/10 05:20:12;;;;;;;4.82;2.38;;;18.60;99.90;;;;;;4955350;28;20078;-79
2023/07/10 05:22:39;;;;;;;5.05;1.60;;;18.60;99.90;;;;;;4955595;28;20101;-80
2023/07/10 05:25:05;;;;;;;5.75;1.90;;;18.60;99.90;;;;;;4955843;28;20034;-80
2023/07/10 05:27:31;;;;;;;2.25;2.03;;;18.70;99.90;;;;;;4955665;28;20443;-79
2023/07/10 05:29:56;;;;;;;1.23;1.13;;;18.70;99.90;;;;;;4955625;28;20169;-79
2023/07/10 05:32:22;;;;;;;2.78;1.60;;;18.70;99.90;;;;;;4955214;28;20058;-79
2023/07/10 05:34:48;;;;;;;1.88;1.55;;;18.80;99.90;;;;;;4962548;28;20342;-79
2023/07/10 05:37:13;;;;;;;2.33;1.52;;;18.90;99.90;;;;;;4965189;28;20368;-79
2023/07/10 05:39:39;;;;;;;3.58;1.15;;;18.90;99.90;;;;;;4983268;28;20077;-79
2023/07/10 05:42:07;;;;;;;1.20;1.13;;;19.00;99.90;;;;;;4966260;28;20039;-83
2023/07/10 05:44:32;;;;;;;1.25;1.00;;;19.00;99.90;;;;;;4982997;28;20035;-79
2023/07/10 05:46:58;;;;;;;2.95;1.45;;;19.00;99.90;;;;;;4962355;28;20326;-78
2023/07/10 05:49:24;;;;;;;3.33;1.65;;;19.00;99.90;;;;;;4982679;28;20026;-79
2023/07/10 05:51:52;;;;;;;1.00;0.90;;;18.90;99.90;;;;;;4963241;28;20031;-79
2023/07/10 05:54:18;;;;;;;0.93;0.93;;;18.80;99.90;;;;;;4959925;28;20042;-82
2023/07/10 05:56:44;;;;;;;1.77;1.27;;;18.90;99.90;;;;;;4959714;28;20065;-79
2023/07/10 05:59:14;;;;;;;1.45;1.35;;;19.50;99.90;;;;;;4963056;28;20023;-80
2023/07/10 06:01:40;;;;;;;3.28;1.80;;;19.30;99.90;;;;;;4983026;28;20110;-79
2023/07/10 06:04:06;;;;;;;3.05;2.35;;;19.50;99.90;;;;;;4964426;28;20410;-83
2023/07/10 06:06:32;;;;;;;5.60;1.95;;;19.90;99.90;;;;;;4962940;28;20504;-79
2023/07/10 06:08:57;;;;;;;3.33;1.30;;;20.30;99.90;;;;;;4981527;28;20318;-79
2023/07/10 06:11:23;;;;;;;0.80;0.80;;;20.60;99.90;;;;;;4956498;28;20023;-79
2023/07/10 06:13:49;;;;;;;2.28;1.85;;;20.80;99.90;;;;;;4962059;28;20027;-83
2023/07/10 06:16:14;;;;;;;1.70;1.35;;;21.10;99.90;;;;;;4962785;28;20019;-79
2023/07/10 06:18:41;;;;;;;2.60;1.25;;;21.10;99.90;;;;;;4980834;28;20046;-82
2023/07/10 06:21:08;;;;;;;1.48;1.38;;;21.10;99.90;;;;;;4947873;29;20126;-82
2023/07/10 06:23:34;;;;;;;4.22;1.00;;;21.10;99.90;;;;;;4945311;29;20047;-82
2023/07/10 06:26:01;;;;;;;2.35;1.52;;;21.20;99.90;;;;;;4945013;29;20026;-84
2023/07/10 06:28:30;;;;;;;1.05;1.05;;;21.40;99.90;;;;;;4961068;29;20058;-83
2023/07/10 06:30:58;;;;;;;2.92;1.30;;;21.60;99.90;;;;;;4944755;29;20023;-78
2023/07/10 06:33:25;;;;;;;1.75;1.48;;;21.70;99.90;;;;;;4943851;29;20039;-79
2023/07/10 06:35:51;;;;;;;3.78;1.98;;;21.80;99.90;;;;;;4944013;29;20051;-79
2023/07/10 06:38:17;;;;;;;2.33;1.30;;;21.90;99.90;;;;;;4945953;29;20031;-84
2023/07/10 06:40:43;;;;;;;3.28;1.60;;;21.70;99.90;;;;;;4964823;29;20050;-80
2023/07/10 06:43:09;;;;;;;3.30;1.10;;;21.30;99.90;;;;;;4952680;29;20051;-82
2023/07/10 06:45:35;;;;;;;1.23;1.10;;;21.60;99.90;;;;;;4943020;29;20081;-78
2023/07/10 06:48:01;;;;;;;4.38;1.63;;;22.70;99.90;;;;;;4955280;29;20034;-79
2023/07/10 06:50:27;;;;;;;5.00;1.50;;;24.00;99.90;;;;;;4947987;29;20023;-79
2023/07/10 06:52:53;;;;;;;3.22;1.48;;;25.10;99.90;;;;;;4959638;29;20110;-81
2023/07/10 06:55:19;;;;;;;12.07;5.65;;;25.70;99.90;;;;;;4935254;29;20034;-77
2023/07/10 06:57:45;;;;;;;2.58;1.17;;;26.40;99.90;;;;;;4935254;29;20031;-77
2023/07/10 07:00:13;;;;;;;3.00;1.65;;;27.30;99.90;;;;;;4934449;29;20059;-74
2023/07/10 07:02:38;;;;;;;2.75;2.13;;;27.80;99.90;;;;;;4958268;29;20027;-77
2023/07/10 07:05:06;;;;;;;5.13;1.10;;;28.20;99.90;;;;;;4942080;29;20031;-76
2023/07/10 07:07:32;;;;;;;1.02;1.00;;;28.70;99.90;;;;;;4962801;28;20030;-76
2023/07/10 07:09:58;;;;;;;3.38;1.30;;;29.40;99.90;;;;;;4958200;29;20078;-78
2023/07/10 07:12:24;;;;;;;2.70;1.23;;;29.70;99.90;;;;;;4960836;29;20035;-75
2023/07/10 07:14:49;;;;;;;4.88;1.70;;;29.90;99.90;;;;;;4962526;29;20019;-76
2023/07/10 07:17:15;;;;;;;2.67;1.17;;;30.10;99.90;;;;;;4961306;29;20419;-75
2023/07/10 07:19:46;;;;;;;2.95;1.17;;;29.90;99.90;;;;;;4958726;29;20027;-76
2023/07/10 07:22:12;;;;;;;3.83;1.33;;;30.20;99.60;;;;;;4960794;29;20054;-76
2023/07/10 07:24:38;;;;;;;2.00;1.27;;;30.50;98.40;;;;;;4959413;29;20035;-75
2023/07/10 07:27:04;;;;;;;3.17;1.20;;;30.60;98.00;;;;;;4937067;29;20090;-73
2023/07/10 07:29:29;;;;;;;1.40;1.30;;;30.30;98.00;;;;;;4954234;29;20074;-71
2023/07/10 07:31:55;;;;;;;2.25;1.80;;;29.60;97.10;;;;;;4954160;29;20030;-73
2023/07/10 07:34:21;;;;;;;1.73;1.60;;;29.10;98.50;;;;;;4946362;29;20028;-72
2023/07/10 07:36:51;;;;;;;1.85;1.42;;;29.30;98.40;;;;;;4930571;29;20050;-71
2023/07/10 07:39:20;;;;;;;3.55;1.88;;;29.20;99.10;;;;;;4928947;29;20024;-73
2023/07/10 07:41:46;;;;;;;2.05;1.63;;;29.10;99.40;;;;;;4930546;29;20039;-72
2023/07/10 07:44:12;;;;;;;2.40;1.40;;;29.20;99.90;;;;;;4930387;29;20405;-71
2023/07/10 07:46:38;;;;;;;2.42;1.55;;;30.10;97.70;;;;;;4930437;29;20496;-77
2023/07/10 07:49:04;;;;;;;2.50;1.95;;;29.60;98.50;;;;;;4930582;29;20441;-72
2023/07/10 07:51:30;;;;;;;3.60;1.83;;;28.30;99.90;;;;;;4930164;29;20023;-72
2023/07/10 07:54:22;;;;;;;1.75;1.60;;;27.20;99.90;;;;;;4933666;29;20122;-71
2023/07/10 07:56:47;;;;;;;5.15;1.60;;;26.50;99.90;;;;;;4927191;29;20059;-70
2023/07/10 07:59:13;;;;;;;3.35;2.17;;;26.60;99.90;;;;;;4937530;29;20023;-71
2023/07/10 08:01:39;;;;;;;1.17;1.08;;;26.70;99.90;;;;;;4915368;29;20095;-71
2023/07/10 08:04:05;;;;;;;2.50;1.70;;;27.10;99.90;;;;;;4931109;29;20024;-72
2023/07/10 08:06:33;;;;;;;4.88;1.60;;;27.60;99.90;;;;;;4931025;29;20562;-70
2023/07/10 08:09:00;;;;;;;3.23;1.20;;;27.50;99.90;;;;;;4934664;29;20115;-73
2023/07/10 08:11:26;;;;;;;2.08;1.88;;;28.00;99.90;;;;;;4930870;29;20506;-77
2023/07/10 08:13:52;;;;;;;2.53;2.10;;;28.70;99.90;;;;;;4932550;29;20321;-72
2023/07/10 08:16:18;;;;;;;2.60;2.33;;;29.50;99.90;;;;;;4932692;29;20107;-73
2023/07/10 08:18:44;;;;;;;2.83;1.65;;;30.00;99.90;;;;;;4932733;29;20024;-74
2023/07/10 08:21:12;;;;;;;1.52;1.42;;;30.50;99.90;;;;;;4934083;29;20051;-73
2023/07/10 08:23:38;;;;;;;6.68;1.95;;;31.10;99.00;;;;;;4915857;29;20189;-73
2023/07/10 08:26:05;;;;;;;1.98;1.77;;;31.70;97.30;;;;;;4906513;29;20036;-72
2023/07/10 08:28:31;;;;;;;1.73;1.63;;;32.40;96.00;;;;;;4903858;29;20091;-73
2023/07/10 08:30:56;;;;;;;2.95;1.40;;;32.90;94.30;;;;;;4916240;29;20063;-73
2023/07/10 08:33:22;;;;;;;2.35;2.08;;;33.10;92.90;;;;;;4926187;29;20036;-75
2023/07/10 08:36:05;;;;;;;2.97;2.13;;;32.90;93.10;;;;;;4936921;29;20036;-74
2023/07/10 08:38:32;;;;;;;2.70;1.83;;;32.90;92.70;;;;;;4940827;29;20267;-75
2023/07/10 08:41:17;;;;;;;2.47;1.75;;;32.50;92.10;;;;;;4945955;29;20058;-75
2023/07/10 08:43:43;;;;;;;2.35;1.65;;;32.10;93.10;;;;;;4909740;29;20040;-75
2023/07/10 08:46:20;;;;;;;2.53;1.77;;;31.80;93.70;;;;;;4926799;29;20024;-77
2023/07/10 08:49:05;;;;;;;2.35;2.15;;;31.40;93.50;;;;;;4926485;29;20260;-74
2023/07/10 08:51:50;;;;;;;2.72;1.80;;;31.00;95.40;;;;;;4923466;29;20031;-77
2023/07/10 08:54:18;;;;;;;2.28;1.88;;;31.70;95.40;;;;;;4923546;29;20020;-78
2023/07/10 08:56:55;;;;;;;3.67;2.47;;;32.20;93.60;;;;;;4928269;29;20016;-74
2023/07/10 08:59:27;;;;;;;3.30;1.83;;;33.10;92.80;;;;;;4927331;29;20051;-73
2023/07/10 09:01:55;;;;;;;3.10;1.95;;;33.20;91.50;;;;;;4920405;29;20088;-77
2023/07/10 09:04:21;;;;;;;3.50;2.25;;;33.70;91.30;;;;;;4898085;29;20029;-73
2023/07/10 09:06:58;;;;;;;4.63;2.10;;;33.70;90.00;;;;;;4900978;29;20030;-74
2023/07/10 09:09:41;;;;;;;2.63;2.22;;;34.00;89.50;;;;;;4915296;29;20111;-72
2023/07/10 09:12:15;;;;;;;5.78;2.40;;;33.90;89.80;;;;;;4898871;29;20419;-73
2023/07/10 09:15:04;;;;;;;2.45;2.20;;;33.60;91.50;;;;;;4915476;29;20036;-73
2023/07/10 09:17:39;;;;;;;5.25;2.38;;;33.60;90.90;;;;;;4916283;29;20500;-74
2023/07/10 09:20:10;;;;;;;2.67;2.17;;;33.70;90.10;;;;;;4914857;29;20036;-73
2023/07/10 09:22:38;;;;;;;2.50;2.30;;;34.00;89.90;;;;;;4915633;29;20040;-73
2023/07/10 09:25:13;;;;;;;5.03;1.80;;;34.10;87.40;;;;;;4915274;29;20020;-74
2023/07/10 09:27:44;;;;;;;2.60;2.15;;;34.20;87.80;;;;;;4915407;29;20076;-74
2023/07/10 09:30:26;;;;;;;2.30;2.20;;;34.00;88.00;;;;;;4897231;29;20035;-75
2023/07/10 09:32:59;;;;;;;5.25;2.58;;;33.20;88.00;;;;;;4914308;29;20175;-72
2023/07/10 09:35:25;;;;;;;2.75;2.28;;;32.60;90.70;;;;;;4928177;29;20566;-76
2023/07/10 09:37:51;;;;;;;2.65;2.33;;;32.30;90.20;;;;;;4944950;29;20091;-75
2023/07/10 09:40:37;;;;;;;3.47;2.55;;;32.40;90.40;;;;;;4920804;29;20039;-73
2023/07/10 09:43:05;;;;;;;3.15;1.95;;;32.80;90.70;;;;;;4913817;29;20039;-73
2023/07/10 09:45:40;;;;;;;5.53;2.30;;;33.40;90.90;;;;;;4913731;29;20029;-73
2023/07/10 09:48:29;;;;;;;3.17;2.33;;;34.40;89.60;;;;;;4917919;29;20229;-73
2023/07/10 09:50:56;;;;;;;3.05;2.67;;;33.50;81.70;;;;;;4924235;29;20180;-72
2023/07/10 09:53:52;;;;;;;5.15;2.28;;;33.30;84.80;;;;;;4923878;29;20359;-73
2023/07/10 09:56:24;;;;;;;6.68;3.05;;;33.00;87.70;;;;;;4917727;29;20484;-73
2023/07/10 09:58:56;;;;;;;9.00;3.38;;;33.00;89.20;;;;;;4915173;29;20040;-72
2023/07/10 10:01:30;;;;;;;5.40;2.65;;;33.10;87.20;;;;;;4914560;29;20043;-72
2023/07/10 10:03:56;;;;;;;4.90;2.67;;;32.40;86.60;;;;;;4917030;29;20024;-72
2023/07/10 10:06:25;;;;;;;3.22;2.35;;;32.50;88.80;;;;;;4924876;29;20028;-72
2023/07/10 10:08:52;;;;;;;5.88;2.85;;;32.70;90.80;;;;;;4921129;29;20237;-74
2023/07/10 10:11:28;;;;;;;3.80;2.70;;;32.70;89.80;;;;;;4921351;29;20036;-77
2023/07/10 10:14:00;;;;;;;2.50;2.30;;;33.70;89.30;;;;;;4938614;29;20039;-77
2023/07/10 10:16:35;;;;;;;3.83;2.38;;;33.80;86.60;;;;;;4942446;29;20522;-76
2023/07/10 10:19:08;;;;;;;7.28;3.38;;;32.40;88.40;;;;;;4943825;29;20295;-74
2023/07/10 10:21:35;;;;;;;4.97;2.10;;;31.70;89.80;;;;;;4941508;29;20308;-72
2023/07/10 10:24:05;;;;;;;6.82;2.50;;;31.30;90.40;;;;;;4936992;29;20044;-72
2023/07/10 10:26:59;;;;;;;5.15;2.50;;;30.80;91.30;;;;;;4934776;29;20032;-73
2023/07/10 10:30:06;;;;;;;5.70;3.58;;;31.30;90.80;;;;;;4941452;29;20316;-77
2023/07/10 10:32:57;;;;;;;9.77;2.63;;;31.90;91.00;;;;;;4877764;29;20373;-72
2023/07/10 10:35:44;;;;;;;6.25;2.60;;;32.30;90.80;;;;;;4931298;29;20036;-72
2023/07/10 10:38:40;;;;;;;4.22;3.25;;;32.40;89.30;;;;;;4939168;29;20024;-75
2023/07/10 10:41:25;;;;;;;3.05;2.33;;;32.20;88.80;;;;;;4937423;29;20020;-73
2023/07/10 10:44:25;;;;;;;4.45;2.38;;;31.90;90.00;;;;;;4942811;29;20301;-73
2023/07/10 10:47:06;;;;;;;5.85;2.20;;;32.10;91.50;;;;;;4942539;29;20314;-77
2023/07/10 10:49:57;;;;;;;3.10;2.60;;;32.30;89.90;;;;;;4942145;29;20045;-74
2023/07/10 10:52:28;;;;;;;3.80;3.00;;;33.10;87.50;;;;;;4943802;29;20034;-75
2023/07/10 10:55:31;;;;;;;3.55;2.63;;;33.40;85.90;;;;;;4943595;29;20208;-72
2023/07/10 10:58:10;;;;;;;3.55;2.92;;;33.20;82.90;;;;;;4942174;29;20020;-73
2023/07/10 11:01:00;;;;;;;4.38;2.95;;;32.60;84.50;;;;;;4942097;29;20028;-73
2023/07/10 11:03:37;;;;;;;4.07;2.38;;;33.30;82.20;;;;;;4943427;29;20038;-73
2023/07/10 11:06:29;;;;;;;4.25;2.83;;;32.60;83.50;;;;;;4945257;29;20015;-72
2023/07/10 11:08:59;;;;;;;3.72;2.95;;;31.80;86.60;;;;;;4940895;29;20045;-73
2023/07/10 11:11:34;;;;;;;3.58;2.67;;;31.90;83.30;;;;;;4932789;29;20036;-73
2023/07/10 11:14:04;;;;;;;3.53;3.22;;;32.20;84.60;;;;;;4932581;29;20031;-75
2023/07/10 11:16:32;;;;;;;3.42;2.92;;;32.80;83.10;;;;;;4932379;29;20059;-74
2023/07/10 11:19:00;;;;;;;3.08;2.60;;;33.60;85.00;;;;;;4931702;29;20709;-73
2023/07/10 11:21:25;;;;;;;5.30;3.60;;;34.30;81.80;;;;;;4953346;29;20055;-76
2023/07/10 11:23:51;;;;;;;5.03;2.78;;;35.30;79.90;;;;;;4980354;28;20072;-71
2023/07/10 11:26:26;;;;;;;5.32;2.53;;;35.80;76.00;;;;;;4964600;28;20407;-77
2023/07/10 11:29:28;;;;;;;2.72;2.50;;;35.90;68.70;;;;;;4981766;28;20079;-73
2023/07/10 11:31:57;;;;;;;6.85;4.07;;;36.30;65.70;;;;;;4981722;28;20015;-71
2023/07/10 11:34:34;;;;;;;3.15;1.70;;;35.90;64.10;;;;;;4981531;28;20076;-73
2023/07/10 11:37:00;;;;;;;3.17;2.88;;;35.70;66.20;;;;;;4974011;28;20086;-72
2023/07/10 11:39:34;;;;;;;6.47;3.05;;;34.90;67.20;;;;;;4962186;29;20062;-72
2023/07/10 11:42:03;;;;;;;3.97;2.95;;;34.60;66.40;;;;;;4961299;29;20183;-75
2023/07/10 11:44:28;;;;;;;;;;;34.30;67.70;;;;;;4962672;29;20074;-72
2023/07/10 11:46:56;;;;;;;3.53;2.75;;;34.30;65.10;;;;;;4962254;29;19917;-75
2023/07/10 11:49:46;;;;;;;4.35;2.45;;;34.30;67.40;;;;;;4944924;29;20063;-72
2023/07/10 11:52:15;;;;;;;3.55;2.22;;;34.70;63.90;;;;;;4950693;28;20031;-72
2023/07/10 11:54:41;;;;;;;;;;;33.80;62.20;;;;;;4948845;29;20026;-74
2023/07/10 11:57:32;;;;;;;6.35;3.15;;;34.10;65.30;;;;;;4948156;29;19902;-72
2023/07/10 12:00:03;;;;;;;2.28;1.92;;;34.30;64.10;;;;;;4941590;29;20398;-72
2023/07/10 12:02:29;;;;;;;3.90;2.70;;;33.80;65.50;;;;;;4963244;29;20058;-71
2023/07/10 12:04:58;;;;;;;3.72;3.20;;;34.40;67.20;;;;;;4965546;29;20030;-76
2023/07/10 12:07:23;;;;;;;3.65;2.70;;;34.80;66.10;;;;;;4965990;29;20394;-72
2023/07/10 12:09:56;;;;;;;2.63;2.33;;;34.10;66.60;;;;;;4965745;29;20028;-73
2023/07/10 12:12:21;;;;;;;5.07;2.30;;;34.20;63.80;;;;;;4965742;29;20011;-72
2023/07/10 12:14:47;;;;;;;3.22;2.65;;;34.90;63.70;;;;;;4966234;29;20272;-75
2023/07/10 12:17:17;;;;;;;3.28;2.40;;;35.70;62.80;;;;;;4967421;29;20016;-72
2023/07/10 12:19:43;;;;;;;2.47;2.28;;;35.90;62.00;;;;;;4976418;29;20019;-72
2023/07/10 12:22:20;;;;;;;3.10;2.03;;;36.10;61.10;;;;;;4976900;29;20199;-75
2023/07/10 12:25:00;;;;;;;4.10;2.38;;;35.20;62.00;;;;;;4966001;29;20026;-78
2023/07/10 12:27:32;;;;;;;4.85;2.65;;;34.70;63.30;;;;;;4946960;28;20019;-78
2023/07/10 12:29:57;;;;;;;3.40;2.70;;;34.20;65.60;;;;;;4964496;28;20019;-78
2023/07/10 12:32:25;;;;;;;4.93;2.72;;;34.30;65.10;;;;;;4947890;29;20030;-77
2023/07/10 12:34:53;;;;;;;2.83;2.22;;;34.30;63.80;;;;;;4964883;29;20035;-77
2023/07/10 12:37:19;;;;;;;3.17;2.10;;;34.20;64.90;;;;;;4950368;29;20075;-78
2023/07/10 12:39:50;;;;;;;4.60;3.22;;;34.50;65.10;;;;;;4945468;29;20024;-78
2023/07/10 12:42:27;;;;;;;6.38;3.13;;;34.30;64.40;;;;;;4939691;29;20052;-78
2023/07/10 12:44:53;;;;;;;2.80;2.42;;;34.60;65.00;;;;;;4941975;29;20043;-79
2023/07/10 12:47:18;;;;;;;2.80;2.47;;;34.80;68.50;;;;;;4949197;29;20023;-78
2023/07/10 12:49:50;;;;;;;2.75;2.38;;;35.20;63.90;;;;;;4953516;29;20032;-77
2023/07/10 12:52:17;;;;;;;3.75;2.80;;;35.50;65.10;;;;;;4941166;29;20023;-78
2023/07/10 12:54:46;;;;;;;4.40;2.72;;;35.40;65.60;;;;;;4960764;29;20074;-78
2023/07/10 12:57:23;;;;;;;2.53;2.33;;;35.00;66.30;;;;;;4956287;29;20026;-78
2023/07/10 12:59:55;;;;;;;5.03;2.65;;;35.20;62.60;;;;;;4953955;29;20023;-78
2023/07/10 13:02:27;;;;;;;3.33;2.58;;;35.00;65.20;;;;;;4957208;29;20117;-79